Time,TemperatureF,DewpointF,PressureIn,WindDirection,WindDirectionDegrees,WindSpeedMPH,WindSpeedGustMPH,Humidity,HourlyPrecipIn,Conditions,Clouds,dailyrainin,SoftwareType,DateUTC
2013-06-13 00:00:00,51.8,51.8,19.99,NNW,345,0.0,4.0,100,0.00,,---,0.00,VWS V13.00,2013-06-13 04:00:00,
2013-06-13 00:30:00,51.3,51.3,19.99,NW,326,3.0,5.0,100,0.00,,---,0.00,VWS V13.00,2013-06-13 04:30:00,
2013-06-13 01:00:00,51.3,51.3,19.99,NW,323,2.0,6.0,100,0.00,,---,0.00,VWS V13.00,2013-06-13 05:00:00,
2013-06-13 01:30:00,50.5,50.5,20.00,NW,323,0.0,4.0,100,0.00,,---,0.00,VWS V13.00,2013-06-13 05:30:00,
2013-06-13 02:00:00,51.3,51.3,19.99,NW,312,5.0,6.0,100,0.00,,---,0.00,VWS V13.00,2013-06-13 06:00:00,
2013-06-13 02:30:00,51.8,51.8,19.99,WNW,291,5.0,7.0,100,0.00,,---,0.00,VWS V13.00,2013-06-13 06:30:00,
2013-06-13 03:00:00,51.5,51.5,19.99,WNW,291,1.0,5.0,100,0.00,,---,0.00,VWS V13.00,2013-06-13 07:00:00,
2013-06-13 03:30:00,49.7,49.7,19.99,WNW,291,0.0,0.0,100,0.00,,---,0.00,VWS V13.00,2013-06-13 07:30:00,
2013-06-13 04:00:00,48.9,48.9,20.00,WNW,291,0.0,3.0,100,0.00,,---,0.00,VWS V13.00,2013-06-13 08:00:00,
2013-06-13 05:30:00,48.8,48.8,20.00,WNW,291,3.0,5.0,100,0.00,,---,0.00,VWS V13.00,2013-06-13 09:30:00,
2013-06-13 06:00:00,49.5,49.5,20.00,WNW,291,0.0,3.0,100,0.00,,---,0.00,VWS V13.00,2013-06-13 10:00:00,
2013-06-13 06:30:00,53.3,53.3,19.99,WNW,291,2.0,4.0,100,0.00,,---,0.00,VWS V13.00,2013-06-13 10:30:00,
2013-06-13 07:00:00,54.6,54.6,19.99,SW,226,0.0,5.0,100,0.00,,---,0.00,VWS V13.00,2013-06-13 11:00:00,
2013-06-13 07:30:00,57.5,57.5,19.99,SW,226,0.0,2.0,100,0.00,,---,0.00,VWS V13.00,2013-06-13 11:30:00,
2013-06-13 08:00:00,59.3,59.3,19.99,South,183,0.0,7.0,100,0.00,,---,0.00,VWS V13.00,2013-06-13 12:00:00,
2013-06-13 08:30:00,58.1,58.1,19.99,South,182,0.0,5.0,100,0.00,,---,0.00,VWS V13.00,2013-06-13 12:30:00,
2013-06-13 09:00:00,57.4,57.4,19.99,SSE,149,3.0,8.0,100,0.00,,---,0.00,VWS V13.00,2013-06-13 13:00:00,
2013-06-13 09:30:00,55.5,55.5,19.99,SSE,149,0.0,3.0,100,0.00,,---,0.00,VWS V13.00,2013-06-13 13:30:00,
2013-06-13 10:00:00,55.3,55.3,20.00,SSE,149,3.0,4.0,100,0.00,,---,0.00,VWS V13.00,2013-06-13 14:00:00,
2013-06-13 10:30:00,55.8,55.8,20.00,SSE,149,1.0,5.0,100,0.00,,---,0.00,VWS V13.00,2013-06-13 14:30:00,
2013-06-13 11:00:00,56.8,56.8,20.00,SSE,149,0.0,3.0,100,0.00,,---,0.00,VWS V13.00,2013-06-13 15:00:00,
2013-06-13 11:30:00,56.7,56.7,19.99,SE,145,0.0,4.0,100,0.00,,---,0.00,VWS V13.00,2013-06-13 15:30:00,
2013-06-13 12:00:00,56.8,56.8,19.99,SE,138,0.0,9.0,100,0.00,,---,0.00,VWS V13.00,2013-06-13 16:00:00,
2013-06-13 12:30:00,56.9,56.9,19.99,SE,126,2.0,9.0,100,0.00,,---,0.00,VWS V13.00,2013-06-13 16:30:00,
2013-06-13 13:00:00,57.0,57.0,19.99,SSE,149,3.0,15.0,100,0.00,,---,0.00,VWS V13.00,2013-06-13 17:00:00,
2013-06-13 13:30:00,55.6,55.6,19.99,SE,129,3.0,12.0,100,0.00,,---,0.00,VWS V13.00,2013-06-13 17:30:00,
2013-06-13 14:00:00,54.8,54.8,19.99,ESE,121,2.0,13.0,100,0.00,,---,0.00,VWS V13.00,2013-06-13 18:00:00,
2013-06-13 14:30:00,54.8,54.8,20.00,SE,138,2.0,9.0,100,0.00,,---,0.00,VWS V13.00,2013-06-13 18:30:00,
2013-06-13 15:00:00,54.0,54.0,19.99,SE,137,3.0,12.0,100,0.00,,---,0.00,VWS V13.00,2013-06-13 19:00:00,
2013-06-13 15:30:00,53.8,53.8,19.99,SE,130,2.0,13.0,100,0.00,,---,0.00,VWS V13.00,2013-06-13 19:30:00,
2013-06-13 16:00:00,53.2,53.2,19.99,ESE,120,3.0,13.0,100,0.00,,---,0.00,VWS V13.00,2013-06-13 20:00:00,
2013-06-13 16:30:00,53.2,53.2,19.99,SE,135,0.0,11.0,100,0.00,,---,0.00,VWS V13.00,2013-06-13 20:30:00,
2013-06-13 17:00:00,52.4,52.4,20.00,SSE,168,3.0,13.0,100,0.00,,---,0.00,VWS V13.00,2013-06-13 21:00:00,
2013-06-13 17:30:00,51.7,51.7,20.00,SE,132,6.0,12.0,100,0.00,,---,0.00,VWS V13.00,2013-06-13 21:30:00,
2013-06-13 18:00:00,51.1,51.1,19.99,SE,144,5.0,10.0,100,0.00,,---,0.00,VWS V13.00,2013-06-13 22:00:00,
2013-06-13 18:30:00,50.6,50.6,19.99,ESE,115,0.0,11.0,100,0.00,,---,0.00,VWS V13.00,2013-06-13 22:30:00,
2013-06-13 19:00:00,50.6,50.6,20.00,SE,139,0.0,6.0,100,0.00,,---,0.00,VWS V13.00,2013-06-13 23:00:00,
2013-06-13 19:30:00,50.2,50.2,19.99,ESE,121,1.0,8.0,100,0.00,,---,0.00,VWS V13.00,2013-06-13 23:30:00,
2013-06-13 20:00:00,50.1,50.1,19.99,ESE,109,0.0,4.0,100,0.00,,---,0.00,VWS V13.00,2013-06-14 00:00:00,
2013-06-13 20:30:00,49.9,49.9,19.99,ESE,109,0.0,3.0,100,0.00,,---,0.00,VWS V13.00,2013-06-14 00:30:00,
2013-06-13 21:00:00,49.6,49.6,20.00,ESE,109,0.0,3.0,100,0.00,,---,0.00,VWS V13.00,2013-06-14 01:00:00,
2013-06-13 21:30:00,49.7,49.7,19.99,ESE,109,0.0,4.0,100,0.00,,---,0.00,VWS V13.00,2013-06-14 01:30:00,
2013-06-13 22:00:00,49.3,49.3,19.99,ESE,109,0.0,4.0,100,0.00,,---,0.00,VWS V13.00,2013-06-14 02:00:00,
2013-06-13 22:30:00,49.2,49.2,19.99,ESE,109,0.0,2.0,100,0.00,,---,0.00,VWS V13.00,2013-06-14 02:30:00,
2013-06-13 23:00:00,49.5,49.5,20.00,ESE,109,0.0,0.0,100,0.00,,---,0.00,VWS V13.00,2013-06-14 03:00:00,
2013-06-13 23:30:00,49.7,49.7,19.99,ESE,109,0.0,2.0,100,0.00,,---,0.00,VWS V13.00,2013-06-14 03:30:00,